Time;durP1;ratioP1;P1;durP2;ratioP2;P2;SDS_P1;SDS_P2;PMS_P1;PMS_P2;Temp;Humidity;BMP_temperature;BMP_pressure;BME280_temperature;BME280_humidity;BME280_pressure;Samples;Min_cycle;Max_cycle;Signal;HPM_P1;HPM_P2
2022/09/14 00:00:46;;;;;;;3.05;1.27;;;14.30;99.90;;;;;;4977303;28;20046;-73
2022/09/14 00:03:12;;;;;;;7.82;1.38;;;14.30;99.90;;;;;;4977522;28;20034;-73
2022/09/14 00:05:38;;;;;;;11.43;1.95;;;14.20;99.90;;;;;;4976892;28;20045;-73
2022/09/14 00:08:03;;;;;;;10.80;1.90;;;14.20;99.90;;;;;;4977170;28;20042;-73
2022/09/14 00:10:29;;;;;;;7.43;1.88;;;14.20;99.90;;;;;;4977390;28;20063;-73
2022/09/14 00:12:55;;;;;;;4.07;1.40;;;14.20;99.90;;;;;;4977497;28;20046;-73
2022/09/14 00:15:20;;;;;;;10.60;1.60;;;14.20;99.90;;;;;;4977005;28;20070;-73
2022/09/14 00:17:46;;;;;;;10.48;1.70;;;14.20;99.90;;;;;;4976955;28;20030;-73
2022/09/14 00:20:12;;;;;;;4.35;1.70;;;14.10;99.90;;;;;;4977017;28;20089;-73
2022/09/14 00:22:38;;;;;;;8.27;1.75;;;14.10;99.90;;;;;;4977147;28;20109;-73
2022/09/14 00:25:04;;;;;;;4.43;1.60;;;14.10;99.90;;;;;;4976891;28;20490;-73
2022/09/14 00:27:31;;;;;;;6.70;1.73;;;14.20;99.90;;;;;;4977129;28;20096;-73
2022/09/14 00:29:56;;;;;;;5.70;1.70;;;14.10;99.90;;;;;;4977083;28;20073;-73
2022/09/14 00:32:22;;;;;;;5.55;1.27;;;14.10;99.90;;;;;;4976766;28;20411;-73
2022/09/14 00:34:47;;;;;;;6.47;1.60;;;14.10;99.90;;;;;;4976668;28;20043;-73
2022/09/14 00:37:13;;;;;;;7.15;1.73;;;14.10;99.90;;;;;;4976810;28;20400;-73
2022/09/14 00:39:38;;;;;;;11.75;2.50;;;14.10;99.90;;;;;;4976658;28;20410;-73
2022/09/14 00:42:04;;;;;;;4.22;1.65;;;14.10;99.90;;;;;;4976939;28;20042;-73
2022/09/14 00:44:30;;;;;;;3.83;1.83;;;14.10;99.90;;;;;;4976584;28;20049;-73
2022/09/14 00:47:01;;;;;;;4.15;1.52;;;14.10;99.90;;;;;;4976473;28;20100;-73
2022/09/14 00:49:35;;;;;;;6.13;1.80;;;14.10;99.90;;;;;;4960641;28;20410;-73
2022/09/14 00:52:10;;;;;;;4.82;1.40;;;14.10;99.90;;;;;;4976574;28;20042;-73
2022/09/14 00:54:40;;;;;;;4.07;1.50;;;14.00;99.90;;;;;;4976390;28;20050;-72
2022/09/14 00:57:06;;;;;;;9.35;2.00;;;14.00;99.90;;;;;;4976405;28;20042;-73
2022/09/14 00:59:37;;;;;;;4.13;1.50;;;14.00;99.90;;;;;;4976398;28;20046;-73
2022/09/14 01:02:03;;;;;;;4.78;1.40;;;14.10;99.90;;;;;;4976416;28;20038;-72
2022/09/14 01:04:30;;;;;;;3.08;1.25;;;14.10;99.90;;;;;;4976600;28;20042;-72
2022/09/14 01:07:10;;;;;;;6.53;1.90;;;14.10;99.90;;;;;;4976254;28;20050;-72
2022/09/14 01:09:50;;;;;;;7.65;1.92;;;14.10;99.90;;;;;;4976566;28;20050;-72
2022/09/14 01:12:33;;;;;;;5.80;1.85;;;14.00;99.90;;;;;;4976351;28;20052;-72
2022/09/14 01:15:22;;;;;;;;;;;14.10;99.90;;;;;;4976666;28;20078;-72
2022/09/14 01:18:14;;;;;;;5.20;1.50;;;14.10;99.90;;;;;;4943902;28;20003;-72
2022/09/14 01:21:02;;;;;;;11.70;1.92;;;14.10;99.90;;;;;;4980268;28;20453;-72
2022/09/14 01:23:38;;;;;;;6.43;1.88;;;14.10;99.90;;;;;;4980186;28;20092;-72
2022/09/14 01:26:25;;;;;;;5.55;1.65;;;14.10;99.90;;;;;;4964117;28;20057;-72
2022/09/14 01:28:57;;;;;;;6.30;1.50;;;14.20;99.90;;;;;;4980111;28;20042;-72
2022/09/14 01:31:29;;;;;;;4.95;1.63;;;14.20;99.90;;;;;;4980377;28;20038;-72
2022/09/14 01:34:06;;;;;;;7.93;1.52;;;14.30;99.90;;;;;;4980112;28;20084;-72
2022/09/14 01:36:35;;;;;;;5.97;1.50;;;14.30;99.90;;;;;;4979992;28;20050;-72
2022/09/14 01:39:02;;;;;;;3.95;1.30;;;14.30;99.90;;;;;;4980120;28;20038;-72
2022/09/14 01:41:30;;;;;;;7.78;1.98;;;14.30;99.90;;;;;;4979872;28;20038;-72
2022/09/14 01:44:03;;;;;;;4.40;1.65;;;14.30;99.90;;;;;;4980051;28;20042;-72
2022/09/14 01:46:37;;;;;;;7.10;1.67;;;14.30;99.90;;;;;;4963644;28;20084;-72
2022/09/14 01:49:31;;;;;;;12.68;1.88;;;14.20;99.90;;;;;;4979861;28;20080;-72
2022/09/14 01:52:17;;;;;;;6.50;1.80;;;14.30;99.90;;;;;;4938882;28;20411;-73
2022/09/14 01:54:51;;;;;;;5.80;1.63;;;14.30;99.90;;;;;;4979566;28;20050;-73
2022/09/14 01:57:33;;;;;;;6.97;1.67;;;14.30;99.90;;;;;;4979550;28;20049;-73
2022/09/14 02:00:05;;;;;;;5.50;1.77;;;14.30;99.90;;;;;;4979899;28;20085;-73
2022/09/14 02:02:37;;;;;;;6.78;2.08;;;14.20;99.90;;;;;;4979822;28;20372;-73
2022/09/14 02:05:09;;;;;;;6.17;1.63;;;14.30;99.90;;;;;;4979548;28;20050;-73
2022/09/14 02:07:36;;;;;;;5.07;1.92;;;14.30;99.90;;;;;;4963327;28;20077;-73
2022/09/14 02:10:05;;;;;;;5.88;1.80;;;14.20;99.90;;;;;;4979599;28;20073;-73
2022/09/14 02:12:31;;;;;;;5.35;1.98;;;14.20;99.90;;;;;;4979328;28;20042;-73
2022/09/14 02:14:57;;;;;;;7.05;1.80;;;14.10;99.90;;;;;;4979388;28;20092;-73
2022/09/14 02:17:22;;;;;;;5.18;1.98;;;14.10;99.90;;;;;;4979449;28;20130;-72
2022/09/14 02:19:57;;;;;;;5.65;1.90;;;14.10;99.90;;;;;;4979286;28;20491;-72
2022/09/14 02:22:26;;;;;;;4.57;1.80;;;14.10;99.90;;;;;;4979384;28;20080;-72
2022/09/14 02:24:52;;;;;;;8.00;1.80;;;14.00;99.90;;;;;;4979091;28;20046;-72
2022/09/14 02:27:18;;;;;;;9.27;1.83;;;14.00;99.90;;;;;;4978946;28;20517;-72
2022/09/14 02:29:44;;;;;;;5.88;1.60;;;14.00;99.90;;;;;;4979096;28;20046;-72
2022/09/14 02:32:22;;;;;;;5.78;1.80;;;14.00;99.90;;;;;;4978956;28;20049;-72
2022/09/14 02:34:58;;;;;;;4.40;1.77;;;14.00;99.90;;;;;;4979107;28;20070;-72
2022/09/14 02:37:36;;;;;;;4.35;1.83;;;14.00;99.90;;;;;;4978748;28;20495;-72
2022/09/14 02:40:40;;;;;;;4.10;1.63;;;14.00;99.90;;;;;;4979129;28;20044;-72
2022/09/14 02:43:20;;;;;;;3.97;1.48;;;14.00;99.90;;;;;;4951133;28;20427;-72
2022/09/14 02:46:15;;;;;;;9.27;1.67;;;14.00;99.90;;;;;;4978714;28;20050;-72
2022/09/14 02:49:07;;;;;;;4.05;1.42;;;14.00;99.90;;;;;;4978646;28;20054;-72
2022/09/14 02:51:40;;;;;;;4.13;1.63;;;14.00;99.90;;;;;;4978890;28;20044;-73
2022/09/14 02:54:10;;;;;;;4.28;1.55;;;14.10;99.90;;;;;;4979587;28;20109;-73
2022/09/14 02:56:36;;;;;;;6.55;1.85;;;14.10;99.90;;;;;;4978678;28;20041;-73
2022/09/14 02:59:02;;;;;;;8.18;2.00;;;14.10;99.90;;;;;;4978487;28;20038;-73
2022/09/14 03:01:28;;;;;;;4.03;1.48;;;14.10;99.90;;;;;;4979005;28;20088;-73
2022/09/14 03:03:53;;;;;;;5.07;1.90;;;14.20;99.90;;;;;;4978420;28;20034;-73
2022/09/14 03:06:19;;;;;;;4.90;1.30;;;14.20;99.90;;;;;;4978313;28;20049;-73
2022/09/14 03:08:45;;;;;;;7.20;1.75;;;14.30;99.90;;;;;;4978254;28;20048;-73
2022/09/14 03:11:11;;;;;;;8.48;2.28;;;14.30;99.90;;;;;;4962423;28;20132;-73
2022/09/14 03:13:37;;;;;;;7.22;1.52;;;14.30;99.90;;;;;;4978404;28;20082;-73
2022/09/14 03:16:06;;;;;;;6.10;1.67;;;14.30;99.90;;;;;;4978144;28;20069;-73
2022/09/14 03:18:33;;;;;;;4.78;1.52;;;14.30;99.90;;;;;;4962058;28;20043;-73
2022/09/14 03:21:10;;;;;;;7.93;1.80;;;14.40;99.90;;;;;;4978047;28;20087;-73
2022/09/14 03:23:37;;;;;;;4.47;1.23;;;14.40;99.90;;;;;;4978118;28;20046;-73
2022/09/14 03:26:06;;;;;;;8.02;1.80;;;14.40;99.90;;;;;;4961887;28;20052;-73
2022/09/14 03:28:32;;;;;;;5.53;1.50;;;14.40;99.90;;;;;;4977887;28;20046;-73
2022/09/14 03:31:05;;;;;;;6.35;1.65;;;14.40;99.90;;;;;;4978678;28;20050;-73
2022/09/14 03:33:31;;;;;;;4.63;1.50;;;14.40;99.90;;;;;;4977960;28;20047;-73
2022/09/14 03:35:57;;;;;;;7.20;2.10;;;14.40;99.90;;;;;;4977679;28;20129;-73
2022/09/14 03:38:23;;;;;;;9.57;1.92;;;14.40;99.90;;;;;;4977232;28;20117;-73
2022/09/14 03:40:49;;;;;;;6.00;1.80;;;14.40;99.90;;;;;;4977463;28;20509;-72
2022/09/14 03:43:14;;;;;;;4.13;1.40;;;14.50;99.90;;;;;;4977692;28;20044;-73
2022/09/14 03:45:40;;;;;;;3.88;1.50;;;14.50;99.90;;;;;;4977851;28;20092;-73
2022/09/14 03:48:06;;;;;;;4.25;1.60;;;14.50;99.90;;;;;;4977506;28;20050;-73
2022/09/14 03:50:32;;;;;;;6.32;2.05;;;14.50;99.90;;;;;;4977514;28;20042;-73
2022/09/14 03:52:58;;;;;;;5.90;1.77;;;14.50;99.90;;;;;;4977445;28;20045;-73
2022/09/14 03:55:24;;;;;;;5.57;1.70;;;14.50;99.90;;;;;;4977436;28;20042;-73
2022/09/14 03:57:54;;;;;;;5.88;1.90;;;14.50;99.90;;;;;;4977298;28;20112;-73
2022/09/14 04:00:19;;;;;;;8.95;1.90;;;14.50;99.90;;;;;;4977322;28;20035;-73
2022/09/14 04:02:45;;;;;;;5.20;1.55;;;14.50;99.90;;;;;;4977346;28;20039;-73
2022/09/14 04:05:11;;;;;;;5.50;1.40;;;14.50;99.90;;;;;;4977348;28;20046;-73
2022/09/14 04:07:36;;;;;;;5.35;1.50;;;14.60;99.90;;;;;;4977416;28;20054;-73
2022/09/14 04:10:04;;;;;;;5.10;1.52;;;14.60;99.90;;;;;;4977393;28;20049;-73
2022/09/14 04:12:34;;;;;;;4.95;1.70;;;14.60;99.90;;;;;;4977146;28;20101;-73
2022/09/14 04:14:59;;;;;;;4.60;1.40;;;14.60;99.90;;;;;;4960839;28;20042;-73
2022/09/14 04:17:25;;;;;;;5.00;1.50;;;14.60;99.90;;;;;;4976970;28;20097;-72
2022/09/14 04:19:50;;;;;;;7.97;1.45;;;14.60;99.90;;;;;;4976980;28;20034;-72
2022/09/14 04:22:16;;;;;;;4.28;1.90;;;14.60;99.90;;;;;;4977058;28;20038;-72
2022/09/14 04:24:41;;;;;;;5.03;1.70;;;14.60;99.90;;;;;;4976940;28;20104;-72
2022/09/14 04:27:07;;;;;;;7.40;1.70;;;14.60;99.90;;;;;;4976817;28;20042;-72
2022/09/14 04:29:33;;;;;;;4.60;1.70;;;14.70;99.90;;;;;;4960745;28;20133;-73
2022/09/14 04:31:58;;;;;;;7.80;1.60;;;14.70;99.90;;;;;;4976880;28;20078;-73
2022/09/14 04:34:24;;;;;;;5.85;1.55;;;14.70;99.90;;;;;;4960689;28;20042;-73
2022/09/14 04:36:50;;;;;;;8.70;1.73;;;14.70;99.90;;;;;;4976476;28;20035;-73
2022/09/14 04:39:15;;;;;;;5.57;1.80;;;14.70;99.90;;;;;;4976716;28;20057;-73
2022/09/14 04:41:41;;;;;;;6.18;1.90;;;14.70;99.90;;;;;;4976691;28;20125;-73
2022/09/14 04:44:07;;;;;;;4.40;1.52;;;14.70;99.90;;;;;;4976576;28;20053;-73
2022/09/14 04:46:38;;;;;;;5.18;1.15;;;14.60;99.90;;;;;;4976452;28;20049;-73
2022/09/14 04:49:05;;;;;;;8.10;1.63;;;14.70;99.90;;;;;;4976863;28;20093;-73
2022/09/14 04:51:32;;;;;;;6.13;1.30;;;14.70;99.90;;;;;;4976541;28;20188;-73
2022/09/14 04:54:00;;;;;;;5.32;1.42;;;14.70;99.90;;;;;;4976439;28;20045;-73
2022/09/14 04:56:27;;;;;;;9.23;1.70;;;14.70;99.90;;;;;;4976371;28;20128;-73
2022/09/14 04:58:55;;;;;;;5.60;1.55;;;14.70;99.90;;;;;;4976321;28;20053;-73
2022/09/14 05:01:23;;;;;;;4.47;1.55;;;14.70;99.90;;;;;;4960282;28;20080;-73
2022/09/14 05:03:50;;;;;;;8.68;2.03;;;14.70;99.90;;;;;;4976385;28;20072;-73
2022/09/14 05:06:19;;;;;;;4.90;1.60;;;14.70;99.90;;;;;;4976564;28;20418;-73
2022/09/14 05:08:45;;;;;;;5.90;1.98;;;14.70;99.90;;;;;;4976322;28;20046;-73
2022/09/14 05:11:14;;;;;;;4.80;1.83;;;14.70;99.90;;;;;;4976392;28;20038;-73
2022/09/14 05:13:40;;;;;;;5.35;1.75;;;14.80;99.90;;;;;;4976319;28;20046;-73
2022/09/14 05:16:08;;;;;;;7.10;1.90;;;14.70;99.90;;;;;;4976151;28;20130;-73
2022/09/14 05:18:34;;;;;;;8.40;2.17;;;14.70;99.90;;;;;;4976176;28;20038;-73
2022/09/14 05:21:05;;;;;;;6.20;1.92;;;14.70;99.90;;;;;;4976485;28;20042;-73
2022/09/14 05:23:31;;;;;;;6.63;1.70;;;14.70;99.90;;;;;;4976965;28;20038;-73
2022/09/14 05:25:57;;;;;;;5.38;1.75;;;14.70;99.90;;;;;;4976249;28;20053;-73
2022/09/14 05:28:24;;;;;;;10.85;1.67;;;14.70;99.90;;;;;;4976732;28;20046;-72
2022/09/14 05:30:50;;;;;;;5.38;1.75;;;14.70;99.90;;;;;;4976344;28;20522;-72
2022/09/14 05:33:15;;;;;;;9.10;1.80;;;14.80;99.90;;;;;;4960104;28;20046;-73
2022/09/14 05:35:41;;;;;;;6.13;2.03;;;14.70;99.90;;;;;;4975979;28;20073;-73
2022/09/14 05:38:06;;;;;;;4.13;1.60;;;14.70;99.90;;;;;;4959814;28;20049;-73
2022/09/14 05:40:32;;;;;;;9.15;2.17;;;14.80;99.90;;;;;;4976352;28;20039;-73
2022/09/14 05:42:57;;;;;;;6.70;2.05;;;14.80;99.90;;;;;;4976269;28;20041;-73
2022/09/14 05:45:23;;;;;;;5.35;1.98;;;14.80;99.90;;;;;;4976303;28;20049;-73
2022/09/14 05:47:48;;;;;;;6.53;1.83;;;14.80;99.90;;;;;;4976211;28;20491;-73
2022/09/14 05:50:14;;;;;;;5.78;1.92;;;14.80;99.90;;;;;;4976030;28;20051;-73
2022/09/14 05:52:40;;;;;;;7.38;2.13;;;14.80;99.90;;;;;;4975958;28;20046;-73
2022/09/14 05:55:06;;;;;;;4.97;1.92;;;14.80;99.90;;;;;;4959726;28;20038;-73
2022/09/14 05:57:31;;;;;;;7.18;2.13;;;14.90;99.90;;;;;;4976100;28;20061;-72
2022/09/14 05:59:57;;;;;;;11.02;1.80;;;14.90;99.90;;;;;;4975851;28;20487;-72
2022/09/14 06:02:23;;;;;;;5.68;2.03;;;14.90;99.90;;;;;;4960870;28;20038;-72
2022/09/14 06:04:48;;;;;;;4.20;1.50;;;14.90;99.90;;;;;;4979388;28;20050;-72
2022/09/14 06:07:14;;;;;;;7.22;2.58;;;14.90;99.90;;;;;;4979419;28;20053;-72
2022/09/14 06:09:39;;;;;;;5.78;1.98;;;14.90;99.90;;;;;;4979706;28;20053;-72
2022/09/14 06:12:05;;;;;;;4.35;1.83;;;15.00;99.90;;;;;;4979333;28;20042;-72
2022/09/14 06:14:31;;;;;;;5.60;2.15;;;15.00;99.90;;;;;;4979212;28;20047;-72
2022/09/14 06:16:56;;;;;;;10.10;2.05;;;15.00;99.90;;;;;;4979473;28;20030;-72
2022/09/14 06:19:22;;;;;;;8.15;2.13;;;15.00;99.90;;;;;;4963084;28;20049;-72
2022/09/14 06:21:47;;;;;;;11.15;2.28;;;15.10;99.90;;;;;;4979200;28;20030;-72
2022/09/14 06:24:13;;;;;;;9.95;2.67;;;15.10;99.90;;;;;;4979389;28;20042;-72
2022/09/14 06:26:39;;;;;;;5.82;2.30;;;15.10;99.90;;;;;;4979108;28;20574;-72
2022/09/14 06:29:05;;;;;;;6.38;2.30;;;15.10;99.90;;;;;;4979061;28;20038;-72
2022/09/14 06:31:30;;;;;;;7.68;2.17;;;15.20;99.90;;;;;;4978993;28;20038;-72
2022/09/14 06:33:56;;;;;;;4.85;2.10;;;15.20;99.90;;;;;;4979031;28;20038;-72
2022/09/14 06:36:24;;;;;;;5.93;2.00;;;15.20;99.90;;;;;;4978847;28;20038;-72
2022/09/14 06:38:51;;;;;;;5.57;1.73;;;15.30;99.90;;;;;;4978678;28;20399;-72
2022/09/14 06:41:19;;;;;;;9.02;2.88;;;15.30;99.90;;;;;;4979057;28;20043;-72
2022/09/14 06:43:45;;;;;;;8.70;2.20;;;15.30;99.90;;;;;;4978840;28;20040;-72
2022/09/14 06:46:17;;;;;;;5.43;2.35;;;15.40;99.90;;;;;;4978677;28;20073;-72
2022/09/14 06:48:46;;;;;;;6.97;2.50;;;15.40;99.90;;;;;;4978691;28;20078;-72
2022/09/14 06:51:13;;;;;;;10.00;2.70;;;15.50;99.90;;;;;;4978600;28;20050;-72
2022/09/14 06:53:39;;;;;;;10.38;2.55;;;15.50;99.90;;;;;;4978594;28;20121;-72
2022/09/14 06:56:04;;;;;;;8.88;2.30;;;15.60;99.90;;;;;;4978497;28;20125;-72
2022/09/14 06:58:32;;;;;;;7.93;2.38;;;15.60;99.90;;;;;;4978461;28;20041;-72
2022/09/14 07:01:06;;;;;;;8.30;2.40;;;15.70;99.90;;;;;;4978421;28;20117;-72
2022/09/14 07:03:35;;;;;;;8.15;2.40;;;15.70;99.90;;;;;;4978416;28;20414;-71
2022/09/14 07:06:09;;;;;;;8.23;2.47;;;15.70;99.90;;;;;;4978435;28;20058;-71
2022/09/14 07:08:37;;;;;;;8.50;2.25;;;15.70;99.90;;;;;;4962210;28;20039;-72
2022/09/14 07:11:03;;;;;;;6.40;2.42;;;15.80;99.90;;;;;;4978498;28;20042;-72
2022/09/14 07:13:30;;;;;;;5.55;1.85;;;15.90;99.90;;;;;;4977674;28;20130;-72
2022/09/14 07:15:56;;;;;;;8.45;2.55;;;15.90;99.90;;;;;;4978518;28;20042;-72
2022/09/14 07:18:27;;;;;;;9.18;2.20;;;16.00;99.90;;;;;;4995549;28;20038;-72
2022/09/14 07:20:53;;;;;;;6.70;2.17;;;16.10;99.90;;;;;;4978124;28;20093;-72
2022/09/14 07:23:19;;;;;;;6.20;1.60;;;16.10;99.90;;;;;;4978057;28;20042;-72
2022/09/14 07:25:45;;;;;;;7.32;2.00;;;16.10;99.90;;;;;;4978000;28;20042;-72
2022/09/14 07:28:10;;;;;;;5.40;1.65;;;16.20;99.90;;;;;;4978171;28;20052;-72
2022/09/14 07:30:36;;;;;;;7.18;1.77;;;16.20;99.90;;;;;;4978188;28;20049;-72
2022/09/14 07:33:03;;;;;;;5.28;1.90;;;16.30;99.90;;;;;;4978119;28;20073;-72
2022/09/14 07:35:30;;;;;;;5.40;1.73;;;16.40;99.90;;;;;;4977964;28;20038;-73
2022/09/14 07:37:55;;;;;;;5.57;1.80;;;16.40;99.90;;;;;;4977617;28;20411;-72
2022/09/14 07:40:24;;;;;;;7.35;1.90;;;16.40;99.90;;;;;;4977761;28;20049;-72
2022/09/14 07:42:51;;;;;;;8.60;2.28;;;16.50;99.90;;;;;;4977630;28;20046;-72
2022/09/14 07:45:17;;;;;;;7.57;1.88;;;16.60;99.90;;;;;;4978537;28;20050;-72
2022/09/14 07:47:43;;;;;;;8.65;1.85;;;16.60;99.90;;;;;;4977556;28;20050;-72
2022/09/14 07:50:08;;;;;;;8.02;1.65;;;16.60;99.90;;;;;;4977506;28;20121;-72
2022/09/14 07:52:34;;;;;;;7.13;1.65;;;16.70;99.90;;;;;;4977485;28;20080;-72
2022/09/14 07:54:59;;;;;;;6.75;1.65;;;16.80;99.90;;;;;;4977452;28;20147;-71
2022/09/14 07:57:26;;;;;;;5.68;1.80;;;16.80;99.90;;;;;;4961510;28;20084;-72
2022/09/14 07:59:52;;;;;;;8.05;1.88;;;16.90;99.90;;;;;;4977639;28;20081;-72
2022/09/14 08:02:17;;;;;;;6.43;1.65;;;16.90;99.90;;;;;;4977312;28;20046;-72
2022/09/14 08:04:43;;;;;;;6.82;1.75;;;17.00;99.90;;;;;;4977303;28;20076;-72
2022/09/14 08:07:09;;;;;;;5.88;1.85;;;17.10;99.90;;;;;;4977097;28;20057;-72
2022/09/14 08:09:34;;;;;;;7.90;1.90;;;17.20;99.90;;;;;;4977147;28;20046;-72
2022/09/14 08:12:00;;;;;;;8.55;2.05;;;17.30;99.90;;;;;;4977219;28;20082;-72
2022/09/14 08:14:26;;;;;;;7.97;1.63;;;17.40;99.90;;;;;;4977077;28;20034;-72
2022/09/14 08:16:51;;;;;;;5.47;1.60;;;17.40;99.90;;;;;;4976992;28;20085;-72
2022/09/14 08:19:19;;;;;;;6.47;1.80;;;17.40;99.90;;;;;;4976972;28;20092;-72
2022/09/14 08:21:45;;;;;;;8.27;1.60;;;17.50;99.90;;;;;;4960836;28;20038;-72
2022/09/14 08:24:12;;;;;;;4.97;1.50;;;17.50;99.90;;;;;;4977008;28;20046;-72
2022/09/14 08:26:39;;;;;;;7.05;1.60;;;17.60;99.90;;;;;;4961487;28;20054;-72
2022/09/14 08:29:06;;;;;;;5.68;1.50;;;17.60;99.90;;;;;;4977661;28;20046;-72
2022/09/14 08:31:35;;;;;;;5.88;1.40;;;17.70;99.90;;;;;;4977059;28;20046;-72
2022/09/14 08:34:02;;;;;;;7.22;1.88;;;17.80;99.90;;;;;;4976687;28;20161;-73
2022/09/14 08:36:31;;;;;;;6.70;1.83;;;17.90;99.90;;;;;;4976603;28;20042;-73
2022/09/14 08:38:56;;;;;;;7.53;1.10;;;18.00;99.90;;;;;;4960841;28;20121;-73
2022/09/14 08:41:25;;;;;;;4.60;1.25;;;18.10;99.90;;;;;;4976644;28;20491;-72
2022/09/14 08:43:52;;;;;;;4.03;0.80;;;18.20;99.90;;;;;;4976654;28;20093;-73
2022/09/14 08:46:45;;;;;;;6.25;1.10;;;18.40;99.90;;;;;;4976911;28;20054;-72
2022/09/14 08:49:19;;;;;;;3.92;0.80;;;18.60;99.90;;;;;;4976613;28;20129;-73
2022/09/14 08:51:44;;;;;;;5.15;0.80;;;18.70;99.90;;;;;;4976492;28;20407;-73
2022/09/14 08:54:10;;;;;;;4.13;0.75;;;18.70;99.90;;;;;;4976481;28;20039;-73
2022/09/14 08:56:43;;;;;;;5.88;1.17;;;18.80;99.90;;;;;;4976401;28;20100;-73
2022/09/14 08:59:27;;;;;;;7.28;0.80;;;18.90;99.90;;;;;;4976609;28;20042;-73
2022/09/14 09:02:19;;;;;;;3.10;0.57;;;19.10;99.90;;;;;;4976695;28;20134;-73
2022/09/14 09:05:11;;;;;;;5.75;0.80;;;19.30;99.90;;;;;;4971922;28;20081;-73
2022/09/14 09:07:52;;;;;;;7.28;0.93;;;19.50;99.90;;;;;;4977205;28;20140;-73
2022/09/14 09:10:18;;;;;;;9.68;1.10;;;19.60;99.90;;;;;;4976290;28;20054;-73
2022/09/14 09:12:52;;;;;;;8.98;1.20;;;19.70;99.90;;;;;;4976520;28;20068;-73
2022/09/14 09:15:45;;;;;;;7.00;1.08;;;19.90;99.90;;;;;;4976296;28;20491;-73
2022/09/14 09:18:18;;;;;;;3.80;0.70;;;20.20;99.90;;;;;;4976461;28;20046;-73
2022/09/14 09:20:57;;;;;;;7.38;1.42;;;20.40;99.90;;;;;;4976262;28;20043;-73
2022/09/14 09:23:26;;;;;;;5.05;0.93;;;20.70;99.90;;;;;;4976222;28;20097;-73
2022/09/14 09:26:35;;;;;;;5.88;1.25;;;21.00;99.90;;;;;;4976162;28;20039;-74
2022/09/14 09:29:02;;;;;;;8.40;1.40;;;21.10;99.90;;;;;;4880512;29;20065;-74
2022/09/14 09:31:36;;;;;;;5.38;1.10;;;21.10;99.90;;;;;;4864768;29;20056;-74
2022/09/14 09:34:02;;;;;;;7.43;1.30;;;21.10;99.90;;;;;;4880459;29;20569;-74
2022/09/14 09:36:41;;;;;;;6.18;1.25;;;21.00;99.90;;;;;;4880172;29;20052;-74
2022/09/14 09:39:07;;;;;;;5.78;1.10;;;20.90;99.90;;;;;;4868371;29;20083;-73
2022/09/14 09:41:47;;;;;;;8.80;0.98;;;20.70;99.90;;;;;;4884110;29;20429;-73
2022/09/14 09:44:13;;;;;;;8.52;1.02;;;20.60;99.90;;;;;;4883905;29;20037;-73
2022/09/14 09:46:54;;;;;;;4.20;0.90;;;20.50;99.90;;;;;;4883903;29;20546;-72
2022/09/14 09:49:22;;;;;;;9.73;1.30;;;20.40;99.90;;;;;;4899499;29;20541;-72
2022/09/14 09:51:48;;;;;;;12.98;1.55;;;20.30;99.90;;;;;;4883674;29;20086;-72
2022/09/14 09:54:14;;;;;;;4.80;0.95;;;20.30;99.90;;;;;;4899342;29;20502;-72
2022/09/14 09:56:49;;;;;;;9.80;1.20;;;20.20;99.90;;;;;;4883439;29;20118;-72
2022/09/14 09:59:39;;;;;;;8.77;1.40;;;20.30;99.90;;;;;;4883585;29;20053;-72
2022/09/14 10:02:26;;;;;;;10.07;1.70;;;20.40;99.90;;;;;;4883787;29;20041;-72
2022/09/14 10:05:06;;;;;;;6.45;1.13;;;20.40;99.90;;;;;;4924985;28;20046;-72
2022/09/14 10:08:00;;;;;;;6.63;0.90;;;20.40;99.90;;;;;;4979586;28;20043;-72
2022/09/14 10:10:34;;;;;;;4.90;0.80;;;20.40;99.90;;;;;;4979644;28;20042;-72
2022/09/14 10:13:03;;;;;;;3.92;0.93;;;20.40;99.90;;;;;;4979607;28;20050;-72
2022/09/14 10:15:30;;;;;;;7.65;1.20;;;20.50;99.90;;;;;;4979190;28;20085;-72
2022/09/14 10:18:03;;;;;;;3.92;1.00;;;20.60;99.90;;;;;;4979181;28;20046;-72
2022/09/14 10:20:29;;;;;;;5.70;0.88;;;20.70;99.90;;;;;;4979287;28;20074;-72
2022/09/14 10:22:55;;;;;;;6.28;0.68;;;20.80;99.90;;;;;;4979164;28;20042;-72
2022/09/14 10:25:26;;;;;;;6.85;1.38;;;21.00;99.90;;;;;;4979137;28;20046;-72
2022/09/14 10:27:55;;;;;;;8.18;1.00;;;21.50;99.60;;;;;;4979342;28;20045;-72
2022/09/14 10:30:35;;;;;;;4.88;1.10;;;22.00;97.80;;;;;;4979358;28;20157;-72
2022/09/14 10:33:04;;;;;;;7.07;0.77;;;22.50;99.50;;;;;;4962898;28;20050;-72
2022/09/14 10:36:02;;;;;;;7.43;0.90;;;22.70;96.10;;;;;;4978713;28;20080;-72
2022/09/14 10:38:28;;;;;;;5.00;0.98;;;22.70;95.10;;;;;;4979024;28;20042;-72
2022/09/14 10:41:35;;;;;;;6.13;1.08;;;22.50;95.20;;;;;;4979132;28;20510;-72
2022/09/14 10:44:25;;;;;;;6.32;1.10;;;22.30;94.10;;;;;;4930798;28;20050;-72
2022/09/14 10:47:09;;;;;;;4.47;1.35;;;22.10;95.20;;;;;;4978954;28;20038;-72
2022/09/14 10:50:02;;;;;;;5.78;0.88;;;21.90;96.80;;;;;;4978634;28;20084;-72
2022/09/14 10:52:34;;;;;;;;;;;21.80;96.60;;;;;;4979304;28;20048;-72
2022/09/14 10:55:33;;;;;;;5.07;0.80;;;21.60;96.50;;;;;;4978568;28;19921;-72
2022/09/14 10:58:26;;;;;;;5.00;0.75;;;21.50;96.50;;;;;;4978532;28;20042;-72
2022/09/14 11:01:24;;;;;;;4.50;1.00;;;21.50;94.40;;;;;;4978763;28;20038;-72
2022/09/14 11:04:13;;;;;;;6.25;0.70;;;21.50;95.60;;;;;;4978272;28;20046;-73
2022/09/14 11:06:54;;;;;;;6.10;1.02;;;21.60;96.80;;;;;;4978414;28;20118;-75
2022/09/14 11:09:25;;;;;;;4.57;0.80;;;22.00;94.80;;;;;;4962296;28;20045;-74
2022/09/14 11:12:10;;;;;;;4.43;0.80;;;22.70;93.80;;;;;;4962254;28;20135;-74
2022/09/14 11:14:46;;;;;;;4.07;0.70;;;23.30;88.00;;;;;;4978284;28;20073;-74
2022/09/14 11:17:35;;;;;;;4.97;1.00;;;23.90;81.40;;;;;;4978184;28;20046;-74
2022/09/14 11:20:42;;;;;;;4.13;0.90;;;24.50;74.90;;;;;;4962136;28;20034;-74
2022/09/14 11:23:34;;;;;;;5.10;0.80;;;25.00;69.50;;;;;;4978142;28;20084;-73
2022/09/14 11:26:06;;;;;;;6.35;0.77;;;25.70;67.40;;;;;;4978330;28;20629;-73
2022/09/14 11:28:39;;;;;;;3.00;0.68;;;26.10;66.10;;;;;;4978303;28;20046;-73
2022/09/14 11:31:20;;;;;;;5.03;0.80;;;26.30;64.10;;;;;;4978003;28;20057;-73
2022/09/14 11:34:18;;;;;;;5.40;0.85;;;26.20;63.30;;;;;;4977943;28;20056;-73
2022/09/14 11:36:49;;;;;;;4.10;0.80;;;25.90;63.20;;;;;;4977696;28;20085;-73
2022/09/14 11:39:23;;;;;;;5.35;1.00;;;25.60;63.40;;;;;;4961771;28;20073;-73
2022/09/14 11:41:59;;;;;;;5.35;0.82;;;25.30;65.60;;;;;;4977718;28;20042;-73
2022/09/14 11:44:36;;;;;;;3.58;0.73;;;25.10;64.00;;;;;;4977768;28;20034;-73
2022/09/14 11:47:17;;;;;;;6.38;0.98;;;24.90;64.90;;;;;;4977849;28;20054;-73
2022/09/14 11:49:42;;;;;;;6.25;0.70;;;24.50;65.30;;;;;;4977660;28;20411;-73
2022/09/14 11:52:20;;;;;;;6.43;0.82;;;24.30;68.40;;;;;;4961490;28;20092;-73
2022/09/14 11:54:47;;;;;;;6.38;0.80;;;24.10;68.50;;;;;;4977400;28;20400;-73
2022/09/14 11:57:31;;;;;;;5.57;0.75;;;23.90;70.10;;;;;;4977417;28;20073;-73
2022/09/14 12:00:00;;;;;;;5.25;0.88;;;23.70;70.20;;;;;;4961183;28;20034;-73
2022/09/14 12:02:28;;;;;;;7.30;0.95;;;23.60;72.00;;;;;;4977332;28;20030;-73
2022/09/14 12:07:46;;;;;;;4.97;0.90;;;24.20;73.00;;;;;;4977481;28;20262;-73
2022/09/14 12:10:15;;;;;;;6.38;0.80;;;24.30;70.20;;;;;;4977350;28;20042;-73
2022/09/14 12:12:44;;;;;;;6.53;1.33;;;24.40;70.30;;;;;;4976979;28;20133;-73
2022/09/14 12:15:25;;;;;;;3.50;0.70;;;24.50;67.40;;;;;;4976899;28;20495;-73
2022/09/14 12:17:53;;;;;;;4.72;0.70;;;24.70;66.50;;;;;;4977307;28;20081;-72
2022/09/14 12:20:41;;;;;;;6.07;0.80;;;24.80;68.50;;;;;;4976986;28;20038;-73
2022/09/14 12:23:29;;;;;;;5.35;0.70;;;25.20;66.00;;;;;;4961292;28;20145;-73
2022/09/14 12:25:58;;;;;;;9.18;0.88;;;25.50;63.10;;;;;;4977320;28;20042;-73
2022/09/14 12:28:34;;;;;;;4.10;0.70;;;25.60;63.10;;;;;;4976898;28;20381;-73
2022/09/14 12:30:59;;;;;;;4.25;0.80;;;25.70;61.90;;;;;;4976890;28;20129;-72
2022/09/14 12:33:31;;;;;;;5.93;0.90;;;25.60;61.70;;;;;;4976848;28;20085;-73
2022/09/14 12:36:10;;;;;;;3.97;0.75;;;25.50;61.70;;;;;;4976856;28;20045;-73
2022/09/14 12:38:36;;;;;;;5.00;0.70;;;25.20;62.30;;;;;;4976686;28;20435;-73
2022/09/14 12:41:13;;;;;;;7.25;1.08;;;25.10;62.30;;;;;;4977030;28;20039;-73
2022/09/14 12:43:39;;;;;;;5.28;0.85;;;25.00;62.20;;;;;;4977183;28;20093;-73
2022/09/14 12:46:31;;;;;;;5.53;0.80;;;25.00;62.80;;;;;;4976963;28;20431;-73
2022/09/14 12:49:01;;;;;;;6.60;1.00;;;25.30;63.30;;;;;;4976741;28;20073;-72
2022/09/14 12:51:30;;;;;;;6.63;0.90;;;25.20;62.30;;;;;;4976897;28;20092;-72
2022/09/14 12:54:07;;;;;;;8.38;0.90;;;25.10;62.00;;;;;;4976780;28;20125;-73
2022/09/14 12:56:39;;;;;;;4.68;0.98;;;24.90;60.90;;;;;;4976407;28;20125;-73
2022/09/14 12:59:32;;;;;;;6.43;0.68;;;24.70;62.00;;;;;;4976477;28;20507;-73
2022/09/14 13:02:22;;;;;;;3.45;0.68;;;24.50;64.00;;;;;;4976765;28;20054;-73
2022/09/14 13:04:52;;;;;;;8.80;1.08;;;24.30;64.40;;;;;;4976477;28;20050;-73
2022/09/14 13:07:19;;;;;;;6.53;0.80;;;24.20;64.90;;;;;;4976317;28;20057;-73
2022/09/14 13:09:56;;;;;;;6.63;0.80;;;24.20;65.40;;;;;;4976635;28;20082;-73
2022/09/14 13:12:37;;;;;;;5.13;1.08;;;24.20;65.00;;;;;;4975604;28;20042;-73